sensor_id;sensor_type;location;lat;lon;timestamp;temperature;humidity
44823;DHT22;51097;51.984;5.650;2022-07-12T00:01:05;20.00;99.90
44823;DHT22;51097;51.984;5.650;2022-07-12T00:03:32;19.90;99.90
44823;DHT22;51097;51.984;5.650;2022-07-12T00:05:58;19.80;99.90
44823;DHT22;51097;51.984;5.650;2022-07-12T00:08:23;19.80;99.90
44823;DHT22;51097;51.984;5.650;2022-07-12T00:10:49;19.80;99.90
44823;DHT22;51097;51.984;5.650;2022-07-12T00:13:15;19.80;99.90
44823;DHT22;51097;51.984;5.650;2022-07-12T00:15:42;19.70;99.90
44823;DHT22;51097;51.984;5.650;2022-07-12T00:18:08;19.70;99.90
44823;DHT22;51097;51.984;5.650;2022-07-12T00:20:34;19.70;99.90
44823;DHT22;51097;51.984;5.650;2022-07-12T00:22:59;19.50;99.90
44823;DHT22;51097;51.984;5.650;2022-07-12T00:25:25;19.60;99.90
44823;DHT22;51097;51.984;5.650;2022-07-12T00:27:51;19.50;99.90
44823;DHT22;51097;51.984;5.650;2022-07-12T00:30:17;19.50;99.90
44823;DHT22;51097;51.984;5.650;2022-07-12T00:32:43;19.40;99.90
44823;DHT22;51097;51.984;5.650;2022-07-12T00:35:09;19.50;99.90
44823;DHT22;51097;51.984;5.650;2022-07-12T00:37:34;19.40;99.90
44823;DHT22;51097;51.984;5.650;2022-07-12T00:40:00;19.40;99.90
44823;DHT22;51097;51.984;5.650;2022-07-12T00:42:27;19.40;99.90
44823;DHT22;51097;51.984;5.650;2022-07-12T00:44:52;19.30;99.90
44823;DHT22;51097;51.984;5.650;2022-07-12T00:47:32;19.30;99.90
44823;DHT22;51097;51.984;5.650;2022-07-12T00:49:59;19.30;99.90
44823;DHT22;51097;51.984;5.650;2022-07-12T00:52:25;19.20;99.90
44823;DHT22;51097;51.984;5.650;2022-07-12T00:54:50;19.10;99.90
44823;DHT22;51097;51.984;5.650;2022-07-12T00:57:16;19.20;99.90
44823;DHT22;51097;51.984;5.650;2022-07-12T00:59:42;19.10;99.90
44823;DHT22;51097;51.984;5.650;2022-07-12T01:02:07;19.20;99.90
44823;DHT22;51097;51.984;5.650;2022-07-12T01:04:34;19.10;99.90
44823;DHT22;51097;51.984;5.650;2022-07-12T01:07:00;19.10;99.90
44823;DHT22;51097;51.984;5.650;2022-07-12T01:09:26;19.00;99.90
44823;DHT22;51097;51.984;5.650;2022-07-12T01:11:53;19.00;99.90
44823;DHT22;51097;51.984;5.650;2022-07-12T01:14:19;19.00;99.90
44823;DHT22;51097;51.984;5.650;2022-07-12T01:16:45;18.90;99.90
44823;DHT22;51097;51.984;5.650;2022-07-12T01:19:13;18.90;99.90
44823;DHT22;51097;51.984;5.650;2022-07-12T01:21:47;18.80;99.90
44823;DHT22;51097;51.984;5.650;2022-07-12T01:24:14;18.80;99.90
44823;DHT22;51097;51.984;5.650;2022-07-12T01:26:40;18.80;99.90
44823;DHT22;51097;51.984;5.650;2022-07-12T01:29:07;18.90;99.90
44823;DHT22;51097;51.984;5.650;2022-07-12T01:31:36;18.80;99.90
44823;DHT22;51097;51.984;5.650;2022-07-12T01:34:03;18.80;99.90
44823;DHT22;51097;51.984;5.650;2022-07-12T01:36:29;18.70;99.90
44823;DHT22;51097;51.984;5.650;2022-07-12T01:38:55;18.70;99.90
44823;DHT22;51097;51.984;5.650;2022-07-12T01:41:22;18.70;99.90
44823;DHT22;51097;51.984;5.650;2022-07-12T01:43:49;18.60;99.90
44823;DHT22;51097;51.984;5.650;2022-07-12T01:46:15;18.50;99.90
44823;DHT22;51097;51.984;5.650;2022-07-12T01:48:41;18.50;99.90
44823;DHT22;51097;51.984;5.650;2022-07-12T01:51:06;18.40;99.90
44823;DHT22;51097;51.984;5.650;2022-07-12T01:53:33;18.40;99.90
44823;DHT22;51097;51.984;5.650;2022-07-12T01:55:59;18.40;99.90
44823;DHT22;51097;51.984;5.650;2022-07-12T01:58:24;18.50;99.90
44823;DHT22;51097;51.984;5.650;2022-07-12T02:00:50;18.30;99.90
44823;DHT22;51097;51.984;5.650;2022-07-12T02:03:20;18.30;99.90
44823;DHT22;51097;51.984;5.650;2022-07-12T02:05:46;18.30;99.90
44823;DHT22;51097;51.984;5.650;2022-07-12T02:08:15;18.20;99.90
44823;DHT22;51097;51.984;5.650;2022-07-12T02:10:41;18.40;99.90
44823;DHT22;51097;51.984;5.650;2022-07-12T02:13:07;18.20;99.90
44823;DHT22;51097;51.984;5.650;2022-07-12T02:15:33;18.30;99.90
44823;DHT22;51097;51.984;5.650;2022-07-12T02:17:59;18.20;99.90
44823;DHT22;51097;51.984;5.650;2022-07-12T02:20:24;18.20;99.90
44823;DHT22;51097;51.984;5.650;2022-07-12T02:22:50;18.30;99.90
44823;DHT22;51097;51.984;5.650;2022-07-12T02:25:16;18.20;99.90
44823;DHT22;51097;51.984;5.650;2022-07-12T02:27:42;18.00;99.90
44823;DHT22;51097;51.984;5.650;2022-07-12T02:30:10;18.10;99.90
44823;DHT22;51097;51.984;5.650;2022-07-12T02:32:35;18.20;99.90
44823;DHT22;51097;51.984;5.650;2022-07-12T02:35:02;18.00;99.90
44823;DHT22;51097;51.984;5.650;2022-07-12T02:37:27;18.10;99.90
44823;DHT22;51097;51.984;5.650;2022-07-12T02:39:53;18.00;99.90
44823;DHT22;51097;51.984;5.650;2022-07-12T02:42:38;18.10;99.90
44823;DHT22;51097;51.984;5.650;2022-07-12T02:45:05;18.00;99.90
44823;DHT22;51097;51.984;5.650;2022-07-12T02:47:31;18.00;99.90
44823;DHT22;51097;51.984;5.650;2022-07-12T02:49:58;17.90;99.90
44823;DHT22;51097;51.984;5.650;2022-07-12T02:52:24;17.90;99.90
44823;DHT22;51097;51.984;5.650;2022-07-12T02:54:50;17.80;99.90
44823;DHT22;51097;51.984;5.650;2022-07-12T02:57:15;17.90;99.90
44823;DHT22;51097;51.984;5.650;2022-07-12T02:59:41;17.80;99.90
44823;DHT22;51097;51.984;5.650;2022-07-12T03:02:06;17.70;99.90
44823;DHT22;51097;51.984;5.650;2022-07-12T03:04:32;17.70;99.90
44823;DHT22;51097;51.984;5.650;2022-07-12T03:06:57;17.70;99.90
44823;DHT22;51097;51.984;5.650;2022-07-12T03:09:23;17.70;99.90
44823;DHT22;51097;51.984;5.650;2022-07-12T03:11:48;17.70;99.90
44823;DHT22;51097;51.984;5.650;2022-07-12T03:14:14;17.70;99.90
44823;DHT22;51097;51.984;5.650;2022-07-12T03:16:40;17.80;99.90
44823;DHT22;51097;51.984;5.650;2022-07-12T03:19:05;17.70;99.90
44823;DHT22;51097;51.984;5.650;2022-07-12T03:21:31;17.60;99.90
44823;DHT22;51097;51.984;5.650;2022-07-12T03:23:56;17.70;99.90
44823;DHT22;51097;51.984;5.650;2022-07-12T03:26:23;17.60;99.90
44823;DHT22;51097;51.984;5.650;2022-07-12T03:28:48;17.50;99.90
44823;DHT22;51097;51.984;5.650;2022-07-12T03:31:14;17.60;99.90
44823;DHT22;51097;51.984;5.650;2022-07-12T03:33:39;17.50;99.90
44823;DHT22;51097;51.984;5.650;2022-07-12T03:36:05;17.50;99.90
44823;DHT22;51097;51.984;5.650;2022-07-12T03:38:33;17.50;99.90
44823;DHT22;51097;51.984;5.650;2022-07-12T03:40:59;17.50;99.90
44823;DHT22;51097;51.984;5.650;2022-07-12T03:43:24;17.50;99.90
44823;DHT22;51097;51.984;5.650;2022-07-12T03:45:50;17.50;99.90
44823;DHT22;51097;51.984;5.650;2022-07-12T03:48:15;17.40;99.90
44823;DHT22;51097;51.984;5.650;2022-07-12T03:50:42;17.40;99.90
44823;DHT22;51097;51.984;5.650;2022-07-12T03:53:07;17.40;99.90
44823;DHT22;51097;51.984;5.650;2022-07-12T03:55:33;17.40;99.90
44823;DHT22;51097;51.984;5.650;2022-07-12T03:57:58;17.40;99.90
44823;DHT22;51097;51.984;5.650;2022-07-12T04:00:24;17.50;99.90
44823;DHT22;51097;51.984;5.650;2022-07-12T04:02:49;17.30;99.90
44823;DHT22;51097;51.984;5.650;2022-07-12T04:05:15;17.30;99.90
44823;DHT22;51097;51.984;5.650;2022-07-12T04:07:41;17.30;99.90
44823;DHT22;51097;51.984;5.650;2022-07-12T04:10:07;17.30;99.90
44823;DHT22;51097;51.984;5.650;2022-07-12T04:12:33;17.30;99.90
44823;DHT22;51097;51.984;5.650;2022-07-12T04:14:59;17.40;99.90
44823;DHT22;51097;51.984;5.650;2022-07-12T04:17:24;17.40;99.90
44823;DHT22;51097;51.984;5.650;2022-07-12T04:19:50;17.30;99.90
44823;DHT22;51097;51.984;5.650;2022-07-12T04:22:16;17.30;99.90
44823;DHT22;51097;51.984;5.650;2022-07-12T04:24:41;17.30;99.90
44823;DHT22;51097;51.984;5.650;2022-07-12T04:27:07;17.30;99.90
44823;DHT22;51097;51.984;5.650;2022-07-12T04:29:32;17.40;99.90
44823;DHT22;51097;51.984;5.650;2022-07-12T04:31:58;17.30;99.90
44823;DHT22;51097;51.984;5.650;2022-07-12T04:34:23;17.40;99.90
44823;DHT22;51097;51.984;5.650;2022-07-12T04:36:49;17.40;99.90
44823;DHT22;51097;51.984;5.650;2022-07-12T04:39:14;17.40;99.90
44823;DHT22;51097;51.984;5.650;2022-07-12T04:41:40;17.40;99.90
44823;DHT22;51097;51.984;5.650;2022-07-12T04:44:07;17.40;99.90
44823;DHT22;51097;51.984;5.650;2022-07-12T04:46:33;17.40;99.90
44823;DHT22;51097;51.984;5.650;2022-07-12T04:48:59;17.50;99.90
44823;DHT22;51097;51.984;5.650;2022-07-12T04:51:24;17.40;99.90
44823;DHT22;51097;51.984;5.650;2022-07-12T04:53:50;17.40;99.90
44823;DHT22;51097;51.984;5.650;2022-07-12T04:56:15;17.50;99.90
44823;DHT22;51097;51.984;5.650;2022-07-12T04:58:41;17.50;99.90
44823;DHT22;51097;51.984;5.650;2022-07-12T05:01:07;17.50;99.90
44823;DHT22;51097;51.984;5.650;2022-07-12T05:03:33;17.50;99.90
44823;DHT22;51097;51.984;5.650;2022-07-12T05:05:59;17.50;99.90
44823;DHT22;51097;51.984;5.650;2022-07-12T05:08:25;17.60;99.90
44823;DHT22;51097;51.984;5.650;2022-07-12T05:10:50;17.60;99.90
44823;DHT22;51097;51.984;5.650;2022-07-12T05:13:16;17.70;99.90
44823;DHT22;51097;51.984;5.650;2022-07-12T05:15:41;17.80;99.90
44823;DHT22;51097;51.984;5.650;2022-07-12T05:18:07;17.80;99.90
44823;DHT22;51097;51.984;5.650;2022-07-12T05:20:32;17.80;99.90
44823;DHT22;51097;51.984;5.650;2022-07-12T05:22:58;17.90;99.90
44823;DHT22;51097;51.984;5.650;2022-07-12T05:25:24;18.10;99.90
44823;DHT22;51097;51.984;5.650;2022-07-12T05:27:50;18.10;99.90
44823;DHT22;51097;51.984;5.650;2022-07-12T05:30:15;18.10;99.90
44823;DHT22;51097;51.984;5.650;2022-07-12T05:32:41;18.10;99.90
44823;DHT22;51097;51.984;5.650;2022-07-12T05:35:07;18.20;99.90
44823;DHT22;51097;51.984;5.650;2022-07-12T05:37:32;18.30;99.90
44823;DHT22;51097;51.984;5.650;2022-07-12T05:39:58;18.50;99.90
44823;DHT22;51097;51.984;5.650;2022-07-12T05:42:24;18.50;99.90
44823;DHT22;51097;51.984;5.650;2022-07-12T05:44:49;18.60;99.90
44823;DHT22;51097;51.984;5.650;2022-07-12T05:47:15;18.60;99.90
44823;DHT22;51097;51.984;5.650;2022-07-12T05:49:40;18.80;99.90
44823;DHT22;51097;51.984;5.650;2022-07-12T05:52:06;18.90;99.90
44823;DHT22;51097;51.984;5.650;2022-07-12T05:54:50;19.00;99.90
44823;DHT22;51097;51.984;5.650;2022-07-12T05:57:16;19.20;99.90
44823;DHT22;51097;51.984;5.650;2022-07-12T05:59:42;19.30;99.90
44823;DHT22;51097;51.984;5.650;2022-07-12T06:02:08;19.50;99.90
44823;DHT22;51097;51.984;5.650;2022-07-12T06:04:34;19.60;99.90
44823;DHT22;51097;51.984;5.650;2022-07-12T06:06:59;19.80;99.90
44823;DHT22;51097;51.984;5.650;2022-07-12T06:09:25;19.90;99.90
44823;DHT22;51097;51.984;5.650;2022-07-12T06:11:50;20.20;99.90
44823;DHT22;51097;51.984;5.650;2022-07-12T06:14:16;20.20;99.90
44823;DHT22;51097;51.984;5.650;2022-07-12T06:16:41;20.40;99.90
44823;DHT22;51097;51.984;5.650;2022-07-12T06:19:07;20.60;99.90
44823;DHT22;51097;51.984;5.650;2022-07-12T06:21:33;20.70;99.90
44823;DHT22;51097;51.984;5.650;2022-07-12T06:23:58;20.80;99.90
44823;DHT22;51097;51.984;5.650;2022-07-12T06:26:24;21.00;99.90
44823;DHT22;51097;51.984;5.650;2022-07-12T06:28:50;21.20;99.90
44823;DHT22;51097;51.984;5.650;2022-07-12T06:31:15;21.20;99.90
44823;DHT22;51097;51.984;5.650;2022-07-12T06:33:43;21.40;99.90
44823;DHT22;51097;51.984;5.650;2022-07-12T06:36:09;21.60;99.90
44823;DHT22;51097;51.984;5.650;2022-07-12T06:38:35;21.70;99.90
44823;DHT22;51097;51.984;5.650;2022-07-12T06:41:00;21.80;99.90
44823;DHT22;51097;51.984;5.650;2022-07-12T06:43:26;21.90;99.90
44823;DHT22;51097;51.984;5.650;2022-07-12T06:45:51;22.00;99.90
44823;DHT22;51097;51.984;5.650;2022-07-12T06:48:17;22.10;99.90
44823;DHT22;51097;51.984;5.650;2022-07-12T06:50:42;22.10;99.90
44823;DHT22;51097;51.984;5.650;2022-07-12T06:53:11;22.30;99.90
44823;DHT22;51097;51.984;5.650;2022-07-12T06:55:37;22.40;99.90
44823;DHT22;51097;51.984;5.650;2022-07-12T06:58:02;22.60;99.90
44823;DHT22;51097;51.984;5.650;2022-07-12T07:00:28;22.80;99.90
44823;DHT22;51097;51.984;5.650;2022-07-12T07:02:54;23.00;99.90
44823;DHT22;51097;51.984;5.650;2022-07-12T07:05:19;23.10;99.90
44823;DHT22;51097;51.984;5.650;2022-07-12T07:07:45;23.40;99.90
44823;DHT22;51097;51.984;5.650;2022-07-12T07:10:10;23.50;99.90
44823;DHT22;51097;51.984;5.650;2022-07-12T07:12:36;23.70;99.90
44823;DHT22;51097;51.984;5.650;2022-07-12T07:15:02;23.90;99.90
44823;DHT22;51097;51.984;5.650;2022-07-12T07:17:28;24.10;99.90
44823;DHT22;51097;51.984;5.650;2022-07-12T07:19:53;24.20;99.90
44823;DHT22;51097;51.984;5.650;2022-07-12T07:22:19;24.40;99.90
44823;DHT22;51097;51.984;5.650;2022-07-12T07:24:45;24.70;99.90
44823;DHT22;51097;51.984;5.650;2022-07-12T07:27:12;25.00;99.90
44823;DHT22;51097;51.984;5.650;2022-07-12T07:29:37;25.20;99.90
44823;DHT22;51097;51.984;5.650;2022-07-12T07:32:21;25.50;99.90
44823;DHT22;51097;51.984;5.650;2022-07-12T07:34:47;25.80;99.90
44823;DHT22;51097;51.984;5.650;2022-07-12T07:37:13;25.90;99.90
44823;DHT22;51097;51.984;5.650;2022-07-12T07:39:39;26.20;99.90
44823;DHT22;51097;51.984;5.650;2022-07-12T07:42:05;26.30;99.90
44823;DHT22;51097;51.984;5.650;2022-07-12T07:44:31;26.30;99.90
44823;DHT22;51097;51.984;5.650;2022-07-12T07:46:56;26.40;99.90
44823;DHT22;51097;51.984;5.650;2022-07-12T07:49:22;26.60;99.90
44823;DHT22;51097;51.984;5.650;2022-07-12T07:51:47;26.70;99.90
44823;DHT22;51097;51.984;5.650;2022-07-12T07:54:13;26.80;99.90
44823;DHT22;51097;51.984;5.650;2022-07-12T07:56:39;27.00;99.90
44823;DHT22;51097;51.984;5.650;2022-07-12T07:59:05;27.10;99.90
44823;DHT22;51097;51.984;5.650;2022-07-12T08:01:33;27.40;99.90
44823;DHT22;51097;51.984;5.650;2022-07-12T08:04:12;27.50;99.90
44823;DHT22;51097;51.984;5.650;2022-07-12T08:06:38;27.80;99.90
44823;DHT22;51097;51.984;5.650;2022-07-12T08:09:04;28.00;99.90
44823;DHT22;51097;51.984;5.650;2022-07-12T08:11:30;28.20;99.90
44823;DHT22;51097;51.984;5.650;2022-07-12T08:13:56;28.30;99.90
44823;DHT22;51097;51.984;5.650;2022-07-12T08:16:21;28.40;99.90
44823;DHT22;51097;51.984;5.650;2022-07-12T08:18:47;28.70;99.90
44823;DHT22;51097;51.984;5.650;2022-07-12T08:21:12;28.80;99.90
44823;DHT22;51097;51.984;5.650;2022-07-12T08:23:38;28.80;99.90
44823;DHT22;51097;51.984;5.650;2022-07-12T08:26:03;29.00;99.90
44823;DHT22;51097;51.984;5.650;2022-07-12T08:28:29;29.20;99.90
44823;DHT22;51097;51.984;5.650;2022-07-12T08:30:55;29.30;99.90
44823;DHT22;51097;51.984;5.650;2022-07-12T08:33:21;29.50;99.90
44823;DHT22;51097;51.984;5.650;2022-07-12T08:35:46;29.80;99.80
44823;DHT22;51097;51.984;5.650;2022-07-12T08:38:12;30.10;99.80
44823;DHT22;51097;51.984;5.650;2022-07-12T08:40:39;30.30;99.00
44823;DHT22;51097;51.984;5.650;2022-07-12T08:43:05;30.30;99.60
44823;DHT22;51097;51.984;5.650;2022-07-12T08:45:31;30.40;99.00
44823;DHT22;51097;51.984;5.650;2022-07-12T08:47:56;30.60;99.10
44823;DHT22;51097;51.984;5.650;2022-07-12T08:50:22;30.60;98.10
44823;DHT22;51097;51.984;5.650;2022-07-12T08:52:53;30.70;97.70
44823;DHT22;51097;51.984;5.650;2022-07-12T08:55:34;30.80;97.70
44823;DHT22;51097;51.984;5.650;2022-07-12T08:58:01;31.00;97.20
44823;DHT22;51097;51.984;5.650;2022-07-12T09:00:28;31.10;96.10
44823;DHT22;51097;51.984;5.650;2022-07-12T09:02:59;31.10;95.10
44823;DHT22;51097;51.984;5.650;2022-07-12T09:05:26;31.10;95.80
44823;DHT22;51097;51.984;5.650;2022-07-12T09:08:08;31.20;95.50
44823;DHT22;51097;51.984;5.650;2022-07-12T09:13:15;30.90;94.60
44823;DHT22;51097;51.984;5.650;2022-07-12T09:15:40;30.80;93.90
44823;DHT22;51097;51.984;5.650;2022-07-12T09:18:07;30.90;93.10
44823;DHT22;51097;51.984;5.650;2022-07-12T09:20:41;31.00;93.50
44823;DHT22;51097;51.984;5.650;2022-07-12T09:23:10;30.90;94.30
44823;DHT22;51097;51.984;5.650;2022-07-12T09:25:46;30.90;93.90
44823;DHT22;51097;51.984;5.650;2022-07-12T09:28:13;30.80;93.90
44823;DHT22;51097;51.984;5.650;2022-07-12T09:30:59;30.70;93.20
44823;DHT22;51097;51.984;5.650;2022-07-12T09:33:24;30.80;93.40
44823;DHT22;51097;51.984;5.650;2022-07-12T09:36:08;30.70;92.80
44823;DHT22;51097;51.984;5.650;2022-07-12T09:41:16;30.30;93.30
44823;DHT22;51097;51.984;5.650;2022-07-12T09:43:42;30.10;94.70
44823;DHT22;51097;51.984;5.650;2022-07-12T09:46:09;30.20;94.70
44823;DHT22;51097;51.984;5.650;2022-07-12T09:48:36;30.20;95.00
44823;DHT22;51097;51.984;5.650;2022-07-12T09:51:03;30.30;95.20
44823;DHT22;51097;51.984;5.650;2022-07-12T09:53:31;30.30;93.90
44823;DHT22;51097;51.984;5.650;2022-07-12T09:56:03;30.10;93.60
44823;DHT22;51097;51.984;5.650;2022-07-12T09:58:36;30.10;94.80
44823;DHT22;51097;51.984;5.650;2022-07-12T10:01:07;29.90;95.50
44823;DHT22;51097;51.984;5.650;2022-07-12T10:03:33;30.00;95.40
44823;DHT22;51097;51.984;5.650;2022-07-12T10:06:01;30.10;94.90
44823;DHT22;51097;51.984;5.650;2022-07-12T10:08:30;29.90;94.30
44823;DHT22;51097;51.984;5.650;2022-07-12T10:10:56;29.90;93.50
44823;DHT22;51097;51.984;5.650;2022-07-12T10:13:22;29.70;94.10
44823;DHT22;51097;51.984;5.650;2022-07-12T10:15:49;29.70;94.00
44823;DHT22;51097;51.984;5.650;2022-07-12T10:18:19;29.70;93.90
44823;DHT22;51097;51.984;5.650;2022-07-12T10:20:47;29.70;94.30
44823;DHT22;51097;51.984;5.650;2022-07-12T10:25:44;29.80;94.30
44823;DHT22;51097;51.984;5.650;2022-07-12T10:28:10;29.90;94.10
44823;DHT22;51097;51.984;5.650;2022-07-12T10:30:44;29.80;94.40
44823;DHT22;51097;51.984;5.650;2022-07-12T10:33:21;30.00;94.20
44823;DHT22;51097;51.984;5.650;2022-07-12T10:36:04;30.10;93.90
44823;DHT22;51097;51.984;5.650;2022-07-12T10:38:34;30.20;93.70
44823;DHT22;51097;51.984;5.650;2022-07-12T10:41:17;30.30;93.50
44823;DHT22;51097;51.984;5.650;2022-07-12T10:43:44;30.40;93.20
44823;DHT22;51097;51.984;5.650;2022-07-12T10:46:28;30.70;92.40
44823;DHT22;51097;51.984;5.650;2022-07-12T10:49:25;30.60;92.40
44823;DHT22;51097;51.984;5.650;2022-07-12T10:54:37;30.60;91.50
44823;DHT22;51097;51.984;5.650;2022-07-12T10:57:03;30.70;91.40
44823;DHT22;51097;51.984;5.650;2022-07-12T10:59:29;30.80;92.40
44823;DHT22;51097;51.984;5.650;2022-07-12T11:01:56;30.80;92.40
44823;DHT22;51097;51.984;5.650;2022-07-12T11:04:22;31.00;91.90
44823;DHT22;51097;51.984;5.650;2022-07-12T11:06:48;31.10;91.90
44823;DHT22;51097;51.984;5.650;2022-07-12T11:09:16;31.20;92.00
44823;DHT22;51097;51.984;5.650;2022-07-12T11:11:45;31.30;92.00
44823;DHT22;51097;51.984;5.650;2022-07-12T11:14:30;31.40;91.70
44823;DHT22;51097;51.984;5.650;2022-07-12T11:16:57;31.40;91.60
44823;DHT22;51097;51.984;5.650;2022-07-12T11:19:26;31.50;91.80
44823;DHT22;51097;51.984;5.650;2022-07-12T11:21:53;31.60;91.30
44823;DHT22;51097;51.984;5.650;2022-07-12T11:24:28;31.60;90.90
44823;DHT22;51097;51.984;5.650;2022-07-12T11:26:54;31.60;90.70
44823;DHT22;51097;51.984;5.650;2022-07-12T11:29:20;31.60;91.40
44823;DHT22;51097;51.984;5.650;2022-07-12T11:31:46;31.70;91.20
44823;DHT22;51097;51.984;5.650;2022-07-12T11:34:23;31.60;91.50
44823;DHT22;51097;51.984;5.650;2022-07-12T11:36:52;31.60;90.70
44823;DHT22;51097;51.984;5.650;2022-07-12T11:39:36;31.50;90.60
44823;DHT22;51097;51.984;5.650;2022-07-12T11:42:02;31.70;90.20
44823;DHT22;51097;51.984;5.650;2022-07-12T11:47:10;32.00;90.10
44823;DHT22;51097;51.984;5.650;2022-07-12T11:49:36;32.10;90.70
44823;DHT22;51097;51.984;5.650;2022-07-12T11:52:05;32.20;88.10
44823;DHT22;51097;51.984;5.650;2022-07-12T11:54:31;32.30;88.30
44823;DHT22;51097;51.984;5.650;2022-07-12T11:57:10;32.50;88.80
44823;DHT22;51097;51.984;5.650;2022-07-12T11:59:36;32.50;88.00
44823;DHT22;51097;51.984;5.650;2022-07-12T12:02:03;32.70;87.70
44823;DHT22;51097;51.984;5.650;2022-07-12T12:04:29;32.70;87.40
44823;DHT22;51097;51.984;5.650;2022-07-12T12:06:55;32.70;88.00
44823;DHT22;51097;51.984;5.650;2022-07-12T12:09:20;32.70;88.80
44823;DHT22;51097;51.984;5.650;2022-07-12T12:11:46;33.00;88.30
44823;DHT22;51097;51.984;5.650;2022-07-12T12:14:12;33.10;86.90
44823;DHT22;51097;51.984;5.650;2022-07-12T12:16:37;33.30;85.80
44823;DHT22;51097;51.984;5.650;2022-07-12T12:19:03;33.50;86.50
44823;DHT22;51097;51.984;5.650;2022-07-12T12:21:35;33.50;86.00
44823;DHT22;51097;51.984;5.650;2022-07-12T12:24:11;33.80;85.90
44823;DHT22;51097;51.984;5.650;2022-07-12T12:26:37;33.90;83.60
44823;DHT22;51097;51.984;5.650;2022-07-12T12:29:03;34.00;82.00
44823;DHT22;51097;51.984;5.650;2022-07-12T12:31:28;34.20;81.40
44823;DHT22;51097;51.984;5.650;2022-07-12T12:33:55;34.40;81.20
44823;DHT22;51097;51.984;5.650;2022-07-12T12:36:28;34.60;79.80
44823;DHT22;51097;51.984;5.650;2022-07-12T12:38:59;34.70;79.50
44823;DHT22;51097;51.984;5.650;2022-07-12T12:41:30;34.90;80.90
44823;DHT22;51097;51.984;5.650;2022-07-12T12:44:04;35.10;81.80
44823;DHT22;51097;51.984;5.650;2022-07-12T12:46:52;35.30;79.80
44823;DHT22;51097;51.984;5.650;2022-07-12T12:49:50;35.50;79.00
44823;DHT22;51097;51.984;5.650;2022-07-12T12:52:16;35.60;77.40
44823;DHT22;51097;51.984;5.650;2022-07-12T12:54:42;35.70;77.00
44823;DHT22;51097;51.984;5.650;2022-07-12T12:57:08;35.90;76.60
44823;DHT22;51097;51.984;5.650;2022-07-12T12:59:35;36.10;76.40
44823;DHT22;51097;51.984;5.650;2022-07-12T13:02:02;36.30;75.70
44823;DHT22;51097;51.984;5.650;2022-07-12T13:04:32;36.70;76.40
44823;DHT22;51097;51.984;5.650;2022-07-12T13:06:59;37.00;74.70
44823;DHT22;51097;51.984;5.650;2022-07-12T13:09:28;37.20;73.40
44823;DHT22;51097;51.984;5.650;2022-07-12T13:11:55;37.30;76.90
44823;DHT22;51097;51.984;5.650;2022-07-12T13:14:20;37.70;74.80
44823;DHT22;51097;51.984;5.650;2022-07-12T13:16:46;37.70;73.90
44823;DHT22;51097;51.984;5.650;2022-07-12T13:19:12;37.90;71.80
44823;DHT22;51097;51.984;5.650;2022-07-12T13:21:38;38.00;72.80
44823;DHT22;51097;51.984;5.650;2022-07-12T13:24:03;38.30;69.90
44823;DHT22;51097;51.984;5.650;2022-07-12T13:26:30;38.50;70.60
44823;DHT22;51097;51.984;5.650;2022-07-12T13:28:56;38.60;68.40
44823;DHT22;51097;51.984;5.650;2022-07-12T13:31:21;38.70;68.00
44823;DHT22;51097;51.984;5.650;2022-07-12T13:33:47;38.90;67.40
44823;DHT22;51097;51.984;5.650;2022-07-12T13:36:13;38.90;66.60
44823;DHT22;51097;51.984;5.650;2022-07-12T13:38:39;39.00;66.50
44823;DHT22;51097;51.984;5.650;2022-07-12T13:41:05;38.90;65.20
44823;DHT22;51097;51.984;5.650;2022-07-12T13:43:30;38.70;61.80
44823;DHT22;51097;51.984;5.650;2022-07-12T13:45:56;38.70;64.20
44823;DHT22;51097;51.984;5.650;2022-07-12T13:48:22;38.70;66.80
44823;DHT22;51097;51.984;5.650;2022-07-12T13:50:48;38.70;65.60
44823;DHT22;51097;51.984;5.650;2022-07-12T13:53:14;38.80;64.40
44823;DHT22;51097;51.984;5.650;2022-07-12T13:55:44;38.90;63.80
44823;DHT22;51097;51.984;5.650;2022-07-12T13:58:10;38.90;63.90
44823;DHT22;51097;51.984;5.650;2022-07-12T14:00:36;39.10;63.80
44823;DHT22;51097;51.984;5.650;2022-07-12T14:03:02;39.10;63.20
44823;DHT22;51097;51.984;5.650;2022-07-12T14:05:28;39.10;61.80
44823;DHT22;51097;51.984;5.650;2022-07-12T14:07:54;39.10;62.50
44823;DHT22;51097;51.984;5.650;2022-07-12T14:10:19;39.10;66.70
44823;DHT22;51097;51.984;5.650;2022-07-12T14:12:45;39.20;62.10
44823;DHT22;51097;51.984;5.650;2022-07-12T14:15:11;39.20;63.90
44823;DHT22;51097;51.984;5.650;2022-07-12T14:18:04;39.20;62.30
44823;DHT22;51097;51.984;5.650;2022-07-12T14:20:31;39.20;59.50
44823;DHT22;51097;51.984;5.650;2022-07-12T14:22:57;39.10;61.30
44823;DHT22;51097;51.984;5.650;2022-07-12T14:25:23;39.10;63.40
44823;DHT22;51097;51.984;5.650;2022-07-12T14:27:48;39.30;64.60
44823;DHT22;51097;51.984;5.650;2022-07-12T14:30:14;39.20;63.20
44823;DHT22;51097;51.984;5.650;2022-07-12T14:32:40;39.20;61.60
44823;DHT22;51097;51.984;5.650;2022-07-12T14:35:06;39.10;58.50
44823;DHT22;51097;51.984;5.650;2022-07-12T14:37:36;38.90;58.30
44823;DHT22;51097;51.984;5.650;2022-07-12T14:40:03;38.70;59.30
44823;DHT22;51097;51.984;5.650;2022-07-12T14:42:29;38.70;61.40
44823;DHT22;51097;51.984;5.650;2022-07-12T14:44:55;38.50;59.20
44823;DHT22;51097;51.984;5.650;2022-07-12T14:47:23;38.40;61.00
44823;DHT22;51097;51.984;5.650;2022-07-12T14:49:49;38.50;59.90
44823;DHT22;51097;51.984;5.650;2022-07-12T14:52:15;38.20;60.00
44823;DHT22;51097;51.984;5.650;2022-07-12T14:54:41;38.00;60.70
44823;DHT22;51097;51.984;5.650;2022-07-12T14:57:07;38.00;60.90
44823;DHT22;51097;51.984;5.650;2022-07-12T14:59:32;37.90;63.40
44823;DHT22;51097;51.984;5.650;2022-07-12T15:01:59;38.10;61.70
44823;DHT22;51097;51.984;5.650;2022-07-12T15:04:24;38.00;60.00
44823;DHT22;51097;51.984;5.650;2022-07-12T15:06:50;37.80;62.20
44823;DHT22;51097;51.984;5.650;2022-07-12T15:09:15;37.70;61.20
44823;DHT22;51097;51.984;5.650;2022-07-12T15:11:41;37.50;59.70
44823;DHT22;51097;51.984;5.650;2022-07-12T15:14:07;37.20;60.10
44823;DHT22;51097;51.984;5.650;2022-07-12T15:16:32;37.00;60.60
44823;DHT22;51097;51.984;5.650;2022-07-12T15:18:58;37.00;60.50
44823;DHT22;51097;51.984;5.650;2022-07-12T15:21:24;36.90;60.60
44823;DHT22;51097;51.984;5.650;2022-07-12T15:23:50;36.80;61.20
44823;DHT22;51097;51.984;5.650;2022-07-12T15:26:18;36.70;61.80
44823;DHT22;51097;51.984;5.650;2022-07-12T15:28:58;36.60;63.60
44823;DHT22;51097;51.984;5.650;2022-07-12T15:31:24;36.70;61.00
44823;DHT22;51097;51.984;5.650;2022-07-12T15:33:51;36.50;63.70
44823;DHT22;51097;51.984;5.650;2022-07-12T15:36:16;36.50;63.10
44823;DHT22;51097;51.984;5.650;2022-07-12T15:38:42;36.40;65.30
44823;DHT22;51097;51.984;5.650;2022-07-12T15:41:10;36.30;65.70
44823;DHT22;51097;51.984;5.650;2022-07-12T15:43:36;36.20;65.60